Terminal Aerodrome Forecast
Issued by NWS Jacksonville, FL

Home | Current Version | Previous Version | Text Only | Print | Product List | Glossary On
Versions: 1 2 3 4 5 6 7 8 9 10 11 12 13 14 15 16 17 18 19 20 21 22 23 24 25 26 27 28 29
000
FTUS42 KJAX 131200 AAA
TAFGNV
TAF AMD
KGNV 131225Z 1312/1412 00000KT 1/4SM FG OVC002
     FM131300 VRB03KT 2SM BR BKN007
     FM131400 VRB03KT 6SM BR SCT015 SCT250
     FM131800 11006KT P6SM VCTS BKN035CB BKN250 PROB30 1321/1324 4SM
      TSRA
     FM140200 VRB02KT P6SM SCT250=

USA.gov is the U.S. government's official web portal to all federal, state and local government web resources and services.